sensor_id;sensor_type;location;lat;lon;timestamp;pressure;altitude;pressure_sealevel;temperature;humidity
64614;BME280;51025;37.772;-122.432;2022-10-28T00:01:13;101136.62;;;18.75;27.80
64614;BME280;51025;37.772;-122.432;2022-10-28T00:03:43;101141.61;;;18.32;27.90
64614;BME280;51025;37.772;-122.432;2022-10-28T00:06:13;101139.80;;;18.43;27.94
64614;BME280;51025;37.772;-122.432;2022-10-28T00:08:42;101140.35;;;18.65;27.84
64614;BME280;51025;37.772;-122.432;2022-10-28T00:11:14;101137.92;;;18.80;27.92
64614;BME280;51025;37.772;-122.432;2022-10-28T00:13:43;101136.89;;;18.37;27.88
64614;BME280;51025;37.772;-122.432;2022-10-28T00:16:15;101138.66;;;18.43;27.70
64614;BME280;51025;37.772;-122.432;2022-10-28T00:18:44;101140.63;;;19.48;27.51
64614;BME280;51025;37.772;-122.432;2022-10-28T00:21:15;101139.33;;;18.39;27.81
64614;BME280;51025;37.772;-122.432;2022-10-28T00:23:44;101138.17;;;18.37;27.90
64614;BME280;51025;37.772;-122.432;2022-10-28T00:26:15;101136.49;;;18.64;27.72
64614;BME280;51025;37.772;-122.432;2022-10-28T00:28:46;101136.53;;;18.39;27.93
64614;BME280;51025;37.772;-122.432;2022-10-28T00:31:17;101136.13;;;18.43;27.82
64614;BME280;51025;37.772;-122.432;2022-10-28T00:33:45;101131.76;;;18.58;27.65
64614;BME280;51025;37.772;-122.432;2022-10-28T00:36:16;101133.82;;;18.26;27.77
64614;BME280;51025;37.772;-122.432;2022-10-28T00:38:48;101131.45;;;18.48;27.96
64614;BME280;51025;37.772;-122.432;2022-10-28T00:41:19;101129.73;;;18.50;27.95
64614;BME280;51025;37.772;-122.432;2022-10-28T00:43:50;101125.74;;;18.31;28.09
64614;BME280;51025;37.772;-122.432;2022-10-28T00:46:23;101127.49;;;18.33;28.02
64614;BME280;51025;37.772;-122.432;2022-10-28T00:48:58;101122.14;;;18.78;27.40
64614;BME280;51025;37.772;-122.432;2022-10-28T00:51:28;101115.80;;;18.19;27.97
64614;BME280;51025;37.772;-122.432;2022-10-28T00:53:59;101119.45;;;18.09;28.04
64614;BME280;51025;37.772;-122.432;2022-10-28T00:56:29;101119.65;;;17.95;28.14
64614;BME280;51025;37.772;-122.432;2022-10-28T00:59:01;101123.71;;;17.97;28.18
64614;BME280;51025;37.772;-122.432;2022-10-28T01:01:31;101127.70;;;18.11;28.08
64614;BME280;51025;37.772;-122.432;2022-10-28T01:04:00;101121.75;;;17.86;28.11
64614;BME280;51025;37.772;-122.432;2022-10-28T01:06:29;101126.09;;;18.45;27.95
64614;BME280;51025;37.772;-122.432;2022-10-28T01:08:58;101123.33;;;18.95;27.85
64614;BME280;51025;37.772;-122.432;2022-10-28T01:11:47;101117.46;;;18.39;27.91
64614;BME280;51025;37.772;-122.432;2022-10-28T01:14:29;101118.55;;;18.00;27.80
64614;BME280;51025;37.772;-122.432;2022-10-28T01:17:14;101120.17;;;17.89;28.06
64614;BME280;51025;37.772;-122.432;2022-10-28T01:22:18;101122.06;;;19.50;28.05
64614;BME280;51025;37.772;-122.432;2022-10-28T01:25:06;101122.23;;;18.52;27.61
64614;BME280;51025;37.772;-122.432;2022-10-28T01:28:10;101128.71;;;18.06;28.08
64614;BME280;51025;37.772;-122.432;2022-10-28T01:31:00;101127.05;;;17.98;28.17
64614;BME280;51025;37.772;-122.432;2022-10-28T01:33:37;101126.43;;;18.57;28.05
64614;BME280;51025;37.772;-122.432;2022-10-28T01:36:13;101127.22;;;17.93;28.22
64614;BME280;51025;37.772;-122.432;2022-10-28T01:38:49;101129.55;;;18.41;28.28
64614;BME280;51025;37.772;-122.432;2022-10-28T01:41:27;101133.26;;;18.90;28.18
64614;BME280;51025;37.772;-122.432;2022-10-28T01:44:02;101132.50;;;17.84;28.59
64614;BME280;51025;37.772;-122.432;2022-10-28T01:46:38;101128.54;;;18.11;28.62
64614;BME280;51025;37.772;-122.432;2022-10-28T01:49:12;101133.09;;;19.04;28.46
64614;BME280;51025;37.772;-122.432;2022-10-28T01:51:44;101136.49;;;17.83;28.60
64614;BME280;51025;37.772;-122.432;2022-10-28T01:54:19;101139.70;;;18.41;28.90
64614;BME280;51025;37.772;-122.432;2022-10-28T01:56:51;101144.81;;;18.98;29.30
64614;BME280;51025;37.772;-122.432;2022-10-28T01:59:24;101148.78;;;18.53;29.72
64614;BME280;51025;37.772;-122.432;2022-10-28T02:01:54;101155.94;;;18.40;30.07
64614;BME280;51025;37.772;-122.432;2022-10-28T02:04:23;101160.96;;;18.62;30.35
64614;BME280;51025;37.772;-122.432;2022-10-28T02:06:54;101160.07;;;18.51;30.88
64614;BME280;51025;37.772;-122.432;2022-10-28T02:09:33;101164.34;;;18.39;30.90
64614;BME280;51025;37.772;-122.432;2022-10-28T02:12:16;101164.90;;;18.41;31.10
64614;BME280;51025;37.772;-122.432;2022-10-28T02:15:23;101169.54;;;18.29;31.01
64614;BME280;51025;37.772;-122.432;2022-10-28T02:18:07;101168.43;;;18.85;30.86
64614;BME280;51025;37.772;-122.432;2022-10-28T02:20:46;101171.13;;;18.46;30.63
64614;BME280;51025;37.772;-122.432;2022-10-28T02:23:22;101175.75;;;18.35;30.26
64614;BME280;51025;37.772;-122.432;2022-10-28T02:25:57;101180.17;;;18.67;30.38
64614;BME280;51025;37.772;-122.432;2022-10-28T02:28:35;101181.54;;;18.35;29.80
64614;BME280;51025;37.772;-122.432;2022-10-28T02:31:09;101186.33;;;18.32;29.84
64614;BME280;51025;37.772;-122.432;2022-10-28T02:33:50;101188.79;;;18.32;29.87
64614;BME280;51025;37.772;-122.432;2022-10-28T02:36:22;101192.57;;;18.34;29.89
64614;BME280;51025;37.772;-122.432;2022-10-28T02:38:54;101192.93;;;19.02;30.22
64614;BME280;51025;37.772;-122.432;2022-10-28T02:41:28;101194.88;;;18.80;30.40
64614;BME280;51025;37.772;-122.432;2022-10-28T02:44:01;101193.25;;;18.77;30.66
64614;BME280;51025;37.772;-122.432;2022-10-28T02:46:32;101194.46;;;18.73;31.66
64614;BME280;51025;37.772;-122.432;2022-10-28T02:49:05;101198.74;;;18.67;31.80
64614;BME280;51025;37.772;-122.432;2022-10-28T02:51:37;101197.52;;;18.67;31.81
64614;BME280;51025;37.772;-122.432;2022-10-28T02:54:11;101200.50;;;19.25;31.90
64614;BME280;51025;37.772;-122.432;2022-10-28T02:56:47;101196.89;;;18.92;31.73
64614;BME280;51025;37.772;-122.432;2022-10-28T02:59:17;101195.06;;;19.13;31.93
64614;BME280;51025;37.772;-122.432;2022-10-28T03:01:46;101198.22;;;19.36;32.23
64614;BME280;51025;37.772;-122.432;2022-10-28T03:04:14;101200.21;;;18.30;32.73
64614;BME280;51025;37.772;-122.432;2022-10-28T03:06:42;101198.05;;;18.99;32.88
64614;BME280;51025;37.772;-122.432;2022-10-28T03:09:12;101200.25;;;19.24;33.05
64614;BME280;51025;37.772;-122.432;2022-10-28T03:11:40;101204.50;;;19.12;32.98
64614;BME280;51025;37.772;-122.432;2022-10-28T03:14:08;101204.21;;;18.97;32.53
64614;BME280;51025;37.772;-122.432;2022-10-28T03:16:36;101203.43;;;19.08;32.80
64614;BME280;51025;37.772;-122.432;2022-10-28T03:19:05;101207.28;;;19.11;32.85
64614;BME280;51025;37.772;-122.432;2022-10-28T03:21:34;101211.21;;;18.41;32.78
64614;BME280;51025;37.772;-122.432;2022-10-28T03:24:02;101208.36;;;19.00;32.87
64614;BME280;51025;37.772;-122.432;2022-10-28T03:26:31;101204.84;;;18.38;32.76
64614;BME280;51025;37.772;-122.432;2022-10-28T03:28:58;101202.97;;;18.80;32.76
64614;BME280;51025;37.772;-122.432;2022-10-28T03:31:27;101207.92;;;18.44;32.07
64614;BME280;51025;37.772;-122.432;2022-10-28T03:33:56;101212.66;;;18.40;32.60
64614;BME280;51025;37.772;-122.432;2022-10-28T03:36:24;101216.38;;;18.79;32.18
64614;BME280;51025;37.772;-122.432;2022-10-28T03:38:52;101219.46;;;18.78;31.64
64614;BME280;51025;37.772;-122.432;2022-10-28T03:41:21;101221.99;;;18.84;31.90
64614;BME280;51025;37.772;-122.432;2022-10-28T03:43:50;101227.75;;;18.74;31.71
64614;BME280;51025;37.772;-122.432;2022-10-28T03:46:18;101230.26;;;18.88;31.74
64614;BME280;51025;37.772;-122.432;2022-10-28T03:48:47;101232.52;;;18.75;31.83
64614;BME280;51025;37.772;-122.432;2022-10-28T03:51:16;101235.06;;;18.30;31.60
64614;BME280;51025;37.772;-122.432;2022-10-28T03:53:45;101234.91;;;18.80;31.66
64614;BME280;51025;37.772;-122.432;2022-10-28T03:56:13;101232.56;;;18.34;31.45
64614;BME280;51025;37.772;-122.432;2022-10-28T03:58:42;101232.29;;;19.48;31.33
64614;BME280;51025;37.772;-122.432;2022-10-28T04:01:10;101231.10;;;18.80;31.18
64614;BME280;51025;37.772;-122.432;2022-10-28T04:03:38;101229.20;;;18.59;31.27
64614;BME280;51025;37.772;-122.432;2022-10-28T04:06:07;101233.02;;;18.70;31.04
64614;BME280;51025;37.772;-122.432;2022-10-28T04:08:36;101237.80;;;18.61;31.27
64614;BME280;51025;37.772;-122.432;2022-10-28T04:11:05;101238.19;;;18.56;31.22
64614;BME280;51025;37.772;-122.432;2022-10-28T04:13:34;101239.22;;;18.52;30.93
64614;BME280;51025;37.772;-122.432;2022-10-28T04:16:02;101240.26;;;18.62;30.50
64614;BME280;51025;37.772;-122.432;2022-10-28T04:18:31;101239.51;;;18.57;30.74
64614;BME280;51025;37.772;-122.432;2022-10-28T04:20:59;101240.33;;;18.89;30.63
64614;BME280;51025;37.772;-122.432;2022-10-28T04:23:27;101243.97;;;18.55;30.68
64614;BME280;51025;37.772;-122.432;2022-10-28T04:25:55;101242.35;;;18.42;30.40
64614;BME280;51025;37.772;-122.432;2022-10-28T04:28:24;101242.15;;;18.44;30.13
64614;BME280;51025;37.772;-122.432;2022-10-28T04:30:53;101242.92;;;18.53;30.23
64614;BME280;51025;37.772;-122.432;2022-10-28T04:33:21;101241.98;;;17.99;30.43
64614;BME280;51025;37.772;-122.432;2022-10-28T04:35:49;101248.24;;;17.91;30.06
64614;BME280;51025;37.772;-122.432;2022-10-28T04:38:17;101248.34;;;18.43;30.01
64614;BME280;51025;37.772;-122.432;2022-10-28T04:40:47;101250.92;;;18.65;29.74
64614;BME280;51025;37.772;-122.432;2022-10-28T04:43:15;101250.91;;;18.06;29.97
64614;BME280;51025;37.772;-122.432;2022-10-28T04:45:45;101255.96;;;18.86;29.81
64614;BME280;51025;37.772;-122.432;2022-10-28T04:48:14;101260.82;;;17.94;29.84
64614;BME280;51025;37.772;-122.432;2022-10-28T04:50:43;101266.20;;;18.17;29.95
64614;BME280;51025;37.772;-122.432;2022-10-28T04:53:12;101267.75;;;18.39;29.63
64614;BME280;51025;37.772;-122.432;2022-10-28T04:55:40;101267.75;;;18.63;29.44
64614;BME280;51025;37.772;-122.432;2022-10-28T04:58:09;101270.99;;;18.48;29.46
64614;BME280;51025;37.772;-122.432;2022-10-28T05:00:39;101271.38;;;18.20;29.56
64614;BME280;51025;37.772;-122.432;2022-10-28T05:03:08;101273.21;;;18.53;29.35
64614;BME280;51025;37.772;-122.432;2022-10-28T05:05:36;101279.44;;;18.20;29.33
64614;BME280;51025;37.772;-122.432;2022-10-28T05:08:06;101282.30;;;18.46;29.29
64614;BME280;51025;37.772;-122.432;2022-10-28T05:10:34;101283.33;;;17.96;29.29
64614;BME280;51025;37.772;-122.432;2022-10-28T05:13:02;101284.57;;;18.18;29.14
64614;BME280;51025;37.772;-122.432;2022-10-28T05:15:30;101282.76;;;18.22;29.17
64614;BME280;51025;37.772;-122.432;2022-10-28T05:17:58;101284.33;;;18.26;29.17
64614;BME280;51025;37.772;-122.432;2022-10-28T05:20:26;101286.09;;;18.35;29.33
64614;BME280;51025;37.772;-122.432;2022-10-28T05:22:55;101287.48;;;18.08;28.88
64614;BME280;51025;37.772;-122.432;2022-10-28T05:25:23;101289.76;;;18.75;29.04
64614;BME280;51025;37.772;-122.432;2022-10-28T05:27:52;101291.26;;;18.01;28.91
64614;BME280;51025;37.772;-122.432;2022-10-28T05:30:20;101291.77;;;18.20;28.91
64614;BME280;51025;37.772;-122.432;2022-10-28T05:32:48;101295.57;;;18.19;28.52
64614;BME280;51025;37.772;-122.432;2022-10-28T05:35:16;101299.73;;;17.62;28.81
64614;BME280;51025;37.772;-122.432;2022-10-28T05:37:45;101299.58;;;18.69;28.72
64614;BME280;51025;37.772;-122.432;2022-10-28T05:40:13;101302.78;;;18.04;29.03
64614;BME280;51025;37.772;-122.432;2022-10-28T05:42:42;101306.28;;;17.99;28.91
64614;BME280;51025;37.772;-122.432;2022-10-28T05:45:12;101307.75;;;18.61;28.81
64614;BME280;51025;37.772;-122.432;2022-10-28T05:47:42;101309.79;;;18.50;28.76
64614;BME280;51025;37.772;-122.432;2022-10-28T05:50:11;101311.92;;;18.56;28.70
64614;BME280;51025;37.772;-122.432;2022-10-28T05:52:45;101312.71;;;17.74;28.69
64614;BME280;51025;37.772;-122.432;2022-10-28T05:55:13;101313.05;;;17.82;28.68
64614;BME280;51025;37.772;-122.432;2022-10-28T05:57:42;101316.30;;;18.06;28.70
64614;BME280;51025;37.772;-122.432;2022-10-28T06:00:12;101316.66;;;18.23;28.47
64614;BME280;51025;37.772;-122.432;2022-10-28T06:02:41;101318.59;;;18.20;28.39
64614;BME280;51025;37.772;-122.432;2022-10-28T06:05:10;101318.64;;;18.08;28.31
64614;BME280;51025;37.772;-122.432;2022-10-28T06:07:40;101319.44;;;18.18;28.30
64614;BME280;51025;37.772;-122.432;2022-10-28T06:10:10;101318.98;;;18.18;28.20
64614;BME280;51025;37.772;-122.432;2022-10-28T06:12:39;101321.65;;;18.15;28.36
64614;BME280;51025;37.772;-122.432;2022-10-28T06:15:08;101323.27;;;18.19;28.46
64614;BME280;51025;37.772;-122.432;2022-10-28T06:17:36;101323.68;;;17.80;28.34
64614;BME280;51025;37.772;-122.432;2022-10-28T06:20:06;101325.57;;;18.11;28.39
64614;BME280;51025;37.772;-122.432;2022-10-28T06:22:34;101326.33;;;18.11;28.34
64614;BME280;51025;37.772;-122.432;2022-10-28T06:25:03;101325.39;;;18.43;28.18
64614;BME280;51025;37.772;-122.432;2022-10-28T06:27:31;101326.89;;;18.34;28.57
64614;BME280;51025;37.772;-122.432;2022-10-28T06:29:59;101328.92;;;17.65;28.68
64614;BME280;51025;37.772;-122.432;2022-10-28T06:32:27;101331.19;;;17.92;28.55
64614;BME280;51025;37.772;-122.432;2022-10-28T06:34:56;101337.47;;;17.81;28.68
64614;BME280;51025;37.772;-122.432;2022-10-28T06:37:29;101338.01;;;18.17;28.81
64614;BME280;51025;37.772;-122.432;2022-10-28T06:39:57;101331.16;;;17.92;28.79
64614;BME280;51025;37.772;-122.432;2022-10-28T06:42:26;101333.64;;;17.81;28.87
64614;BME280;51025;37.772;-122.432;2022-10-28T06:44:55;101333.43;;;18.21;28.85
64614;BME280;51025;37.772;-122.432;2022-10-28T06:47:23;101339.47;;;17.37;28.92
64614;BME280;51025;37.772;-122.432;2022-10-28T06:49:52;101339.84;;;18.13;29.21
64614;BME280;51025;37.772;-122.432;2022-10-28T06:52:20;101339.83;;;18.08;28.98
64614;BME280;51025;37.772;-122.432;2022-10-28T06:54:49;101337.67;;;17.79;28.94
64614;BME280;51025;37.772;-122.432;2022-10-28T06:57:18;101336.74;;;17.06;28.93
64614;BME280;51025;37.772;-122.432;2022-10-28T06:59:47;101335.50;;;17.91;28.84
64614;BME280;51025;37.772;-122.432;2022-10-28T07:02:15;101333.88;;;17.23;28.96
64614;BME280;51025;37.772;-122.432;2022-10-28T07:04:43;101330.41;;;18.29;28.79
64614;BME280;51025;37.772;-122.432;2022-10-28T07:07:12;101337.22;;;18.21;29.05
64614;BME280;51025;37.772;-122.432;2022-10-28T07:09:43;101338.34;;;18.13;29.06
64614;BME280;51025;37.772;-122.432;2022-10-28T07:12:11;101339.69;;;17.74;29.18
64614;BME280;51025;37.772;-122.432;2022-10-28T07:14:40;101336.00;;;18.17;29.20
64614;BME280;51025;37.772;-122.432;2022-10-28T07:17:08;101341.34;;;18.00;29.40
64614;BME280;51025;37.772;-122.432;2022-10-28T07:19:37;101337.92;;;18.12;29.21
64614;BME280;51025;37.772;-122.432;2022-10-28T07:22:06;101337.01;;;18.00;29.53
64614;BME280;51025;37.772;-122.432;2022-10-28T07:24:34;101336.31;;;18.11;29.28
64614;BME280;51025;37.772;-122.432;2022-10-28T07:27:02;101337.56;;;17.97;29.45
64614;BME280;51025;37.772;-122.432;2022-10-28T07:29:30;101335.97;;;17.91;29.36
64614;BME280;51025;37.772;-122.432;2022-10-28T07:31:58;101333.71;;;17.64;29.46
64614;BME280;51025;37.772;-122.432;2022-10-28T07:34:27;101335.77;;;17.84;29.27
64614;BME280;51025;37.772;-122.432;2022-10-28T07:36:56;101336.51;;;17.85;29.60
64614;BME280;51025;37.772;-122.432;2022-10-28T07:39:25;101339.91;;;17.97;29.43
64614;BME280;51025;37.772;-122.432;2022-10-28T07:41:53;101340.46;;;17.84;29.29
64614;BME280;51025;37.772;-122.432;2022-10-28T07:44:22;101338.19;;;17.46;29.64
64614;BME280;51025;37.772;-122.432;2022-10-28T07:46:50;101338.77;;;17.64;29.45
64614;BME280;51025;37.772;-122.432;2022-10-28T07:49:19;101340.83;;;17.40;29.60
64614;BME280;51025;37.772;-122.432;2022-10-28T07:51:50;101341.19;;;17.67;29.48
64614;BME280;51025;37.772;-122.432;2022-10-28T07:54:18;101343.63;;;17.88;29.50
64614;BME280;51025;37.772;-122.432;2022-10-28T07:56:47;101342.98;;;18.46;29.29
64614;BME280;51025;37.772;-122.432;2022-10-28T07:59:15;101340.61;;;17.23;29.31
64614;BME280;51025;37.772;-122.432;2022-10-28T08:01:44;101340.23;;;17.47;29.44
64614;BME280;51025;37.772;-122.432;2022-10-28T08:04:13;101341.10;;;17.83;29.17
64614;BME280;51025;37.772;-122.432;2022-10-28T08:06:41;101343.05;;;17.37;29.27
64614;BME280;51025;37.772;-122.432;2022-10-28T08:09:10;101342.60;;;18.21;29.26
64614;BME280;51025;37.772;-122.432;2022-10-28T08:11:39;101344.36;;;17.80;29.21
64614;BME280;51025;37.772;-122.432;2022-10-28T08:14:08;101350.36;;;18.17;29.31
64614;BME280;51025;37.772;-122.432;2022-10-28T08:16:36;101353.52;;;17.28;29.00
64614;BME280;51025;37.772;-122.432;2022-10-28T08:19:05;101356.94;;;17.75;29.35
64614;BME280;51025;37.772;-122.432;2022-10-28T08:21:33;101357.21;;;17.66;29.26
64614;BME280;51025;37.772;-122.432;2022-10-28T08:24:02;101359.61;;;17.60;29.19
64614;BME280;51025;37.772;-122.432;2022-10-28T08:26:31;101360.71;;;17.46;28.85
64614;BME280;51025;37.772;-122.432;2022-10-28T08:28:59;101356.69;;;17.72;29.16
64614;BME280;51025;37.772;-122.432;2022-10-28T08:31:27;101357.32;;;18.04;29.07
64614;BME280;51025;37.772;-122.432;2022-10-28T08:33:56;101361.48;;;17.68;29.04
64614;BME280;51025;37.772;-122.432;2022-10-28T08:36:25;101361.29;;;17.95;29.21
64614;BME280;51025;37.772;-122.432;2022-10-28T08:38:53;101361.84;;;17.87;29.12
64614;BME280;51025;37.772;-122.432;2022-10-28T08:41:30;101360.17;;;17.50;29.24
64614;BME280;51025;37.772;-122.432;2022-10-28T08:44:15;101359.45;;;17.62;29.13
64614;BME280;51025;37.772;-122.432;2022-10-28T08:46:57;101359.63;;;18.05;29.04
64614;BME280;51025;37.772;-122.432;2022-10-28T08:49:32;101357.45;;;17.67;28.92
64614;BME280;51025;37.772;-122.432;2022-10-28T08:52:09;101357.73;;;17.90;29.29
64614;BME280;51025;37.772;-122.432;2022-10-28T08:54:44;101357.57;;;17.65;29.01
64614;BME280;51025;37.772;-122.432;2022-10-28T08:57:19;101359.78;;;17.28;28.89
64614;BME280;51025;37.772;-122.432;2022-10-28T08:59:51;101360.46;;;17.72;28.89
64614;BME280;51025;37.772;-122.432;2022-10-28T09:02:23;101365.43;;;17.49;29.22
64614;BME280;51025;37.772;-122.432;2022-10-28T09:04:57;101370.04;;;17.90;29.19
64614;BME280;51025;37.772;-122.432;2022-10-28T09:07:28;101371.66;;;17.51;29.21
64614;BME280;51025;37.772;-122.432;2022-10-28T09:09:57;101372.05;;;17.52;29.24
64614;BME280;51025;37.772;-122.432;2022-10-28T09:12:34;101374.20;;;17.49;29.28
64614;BME280;51025;37.772;-122.432;2022-10-28T09:15:18;101373.46;;;17.94;29.27
64614;BME280;51025;37.772;-122.432;2022-10-28T09:17:53;101377.52;;;17.53;29.34
64614;BME280;51025;37.772;-122.432;2022-10-28T09:20:28;101374.96;;;17.68;29.22
64614;BME280;51025;37.772;-122.432;2022-10-28T09:23:04;101374.98;;;17.15;29.37
64614;BME280;51025;37.772;-122.432;2022-10-28T09:25:41;101374.34;;;17.65;29.29
64614;BME280;51025;37.772;-122.432;2022-10-28T09:28:26;101375.35;;;17.52;29.43
64614;BME280;51025;37.772;-122.432;2022-10-28T09:31:03;101377.92;;;18.01;29.42
64614;BME280;51025;37.772;-122.432;2022-10-28T09:33:48;101379.03;;;17.24;29.75
64614;BME280;51025;37.772;-122.432;2022-10-28T09:36:23;101377.70;;;17.31;29.75
64614;BME280;51025;37.772;-122.432;2022-10-28T09:38:57;101376.87;;;17.42;29.67
64614;BME280;51025;37.772;-122.432;2022-10-28T09:41:28;101377.17;;;17.56;29.65
64614;BME280;51025;37.772;-122.432;2022-10-28T09:44:05;101384.02;;;17.38;29.81
64614;BME280;51025;37.772;-122.432;2022-10-28T09:46:35;101387.06;;;17.20;29.74
64614;BME280;51025;37.772;-122.432;2022-10-28T09:49:10;101386.27;;;17.70;29.60
64614;BME280;51025;37.772;-122.432;2022-10-28T09:51:46;101392.19;;;17.46;29.88
64614;BME280;51025;37.772;-122.432;2022-10-28T09:54:25;101396.99;;;17.38;29.98
64614;BME280;51025;37.772;-122.432;2022-10-28T09:56:55;101400.64;;;17.39;30.06
64614;BME280;51025;37.772;-122.432;2022-10-28T09:59:23;101403.07;;;17.51;30.01
64614;BME280;51025;37.772;-122.432;2022-10-28T10:01:52;101404.29;;;17.51;29.98
64614;BME280;51025;37.772;-122.432;2022-10-28T10:04:22;101400.92;;;17.31;30.19
64614;BME280;51025;37.772;-122.432;2022-10-28T10:06:55;101402.75;;;17.25;30.32
64614;BME280;51025;37.772;-122.432;2022-10-28T10:09:27;101406.01;;;17.27;30.27
64614;BME280;51025;37.772;-122.432;2022-10-28T10:11:59;101405.23;;;17.26;30.37
64614;BME280;51025;37.772;-122.432;2022-10-28T10:14:37;101407.03;;;17.85;30.24
64614;BME280;51025;37.772;-122.432;2022-10-28T10:17:14;101406.65;;;17.40;30.31
64614;BME280;51025;37.772;-122.432;2022-10-28T10:20:17;101403.96;;;17.36;30.41
64614;BME280;51025;37.772;-122.432;2022-10-28T10:22:48;101402.79;;;17.17;30.60
64614;BME280;51025;37.772;-122.432;2022-10-28T10:25:30;101403.88;;;17.12;30.65
64614;BME280;51025;37.772;-122.432;2022-10-28T10:28:01;101404.21;;;17.64;30.64
64614;BME280;51025;37.772;-122.432;2022-10-28T10:30:32;101401.94;;;17.11;30.72
64614;BME280;51025;37.772;-122.432;2022-10-28T10:33:01;101402.31;;;17.22;30.62
64614;BME280;51025;37.772;-122.432;2022-10-28T10:35:31;101403.13;;;17.03;30.80
64614;BME280;51025;37.772;-122.432;2022-10-28T10:38:02;101403.84;;;17.18;30.69
64614;BME280;51025;37.772;-122.432;2022-10-28T10:40:33;101403.83;;;17.17;30.69
64614;BME280;51025;37.772;-122.432;2022-10-28T10:43:35;101407.18;;;17.31;30.52
64614;BME280;51025;37.772;-122.432;2022-10-28T10:46:11;101414.44;;;17.39;30.44
64614;BME280;51025;37.772;-122.432;2022-10-28T10:48:40;101416.57;;;17.42;30.39
64614;BME280;51025;37.772;-122.432;2022-10-28T10:51:16;101416.79;;;17.35;30.45
64614;BME280;51025;37.772;-122.432;2022-10-28T10:53:48;101415.11;;;17.09;30.67
64614;BME280;51025;37.772;-122.432;2022-10-28T10:56:24;101416.92;;;17.07;30.74
64614;BME280;51025;37.772;-122.432;2022-10-28T10:58:55;101417.24;;;17.08;30.71
64614;BME280;51025;37.772;-122.432;2022-10-28T11:01:27;101419.88;;;17.14;30.62
64614;BME280;51025;37.772;-122.432;2022-10-28T11:04:00;101420.97;;;17.20;30.56
64614;BME280;51025;37.772;-122.432;2022-10-28T11:06:31;101419.16;;;16.96;30.83
64614;BME280;51025;37.772;-122.432;2022-10-28T11:09:03;101422.68;;;16.95;30.83
64614;BME280;51025;37.772;-122.432;2022-10-28T11:11:34;101421.61;;;17.31;30.83
64614;BME280;51025;37.772;-122.432;2022-10-28T11:14:05;101420.66;;;16.79;30.94
64614;BME280;51025;37.772;-122.432;2022-10-28T11:16:47;101422.67;;;16.91;30.82
64614;BME280;51025;37.772;-122.432;2022-10-28T11:19:20;101422.18;;;17.04;30.71
64614;BME280;51025;37.772;-122.432;2022-10-28T11:22:12;101424.15;;;17.09;30.63
64614;BME280;51025;37.772;-122.432;2022-10-28T11:24:59;101419.61;;;16.94;30.75
64614;BME280;51025;37.772;-122.432;2022-10-28T11:27:41;101419.72;;;17.23;30.86
64614;BME280;51025;37.772;-122.432;2022-10-28T11:30:17;101421.40;;;17.13;30.53
64614;BME280;51025;37.772;-122.432;2022-10-28T11:32:55;101421.36;;;17.36;30.67
64614;BME280;51025;37.772;-122.432;2022-10-28T11:35:35;101424.75;;;16.90;30.66
64614;BME280;51025;37.772;-122.432;2022-10-28T11:38:17;101423.26;;;16.75;30.79
64614;BME280;51025;37.772;-122.432;2022-10-28T11:41:03;101425.94;;;17.19;30.75
64614;BME280;51025;37.772;-122.432;2022-10-28T11:43:42;101429.82;;;17.14;30.77
64614;BME280;51025;37.772;-122.432;2022-10-28T11:46:22;101430.10;;;16.76;30.70
64614;BME280;51025;37.772;-122.432;2022-10-28T11:49:12;101436.38;;;17.11;30.76
64614;BME280;51025;37.772;-122.432;2022-10-28T11:51:52;101438.03;;;17.13;30.73
64614;BME280;51025;37.772;-122.432;2022-10-28T11:54:34;101444.41;;;16.97;30.86
64614;BME280;51025;37.772;-122.432;2022-10-28T11:57:08;101447.12;;;17.01;30.83
64614;BME280;51025;37.772;-122.432;2022-10-28T11:59:53;101450.68;;;16.97;30.83
64614;BME280;51025;37.772;-122.432;2022-10-28T12:02:37;101450.12;;;17.40;30.79
64614;BME280;51025;37.772;-122.432;2022-10-28T12:05:17;101451.47;;;17.44;30.70
64614;BME280;51025;37.772;-122.432;2022-10-28T12:08:00;101454.38;;;16.97;30.80
64614;BME280;51025;37.772;-122.432;2022-10-28T12:10:44;101457.42;;;17.03;30.74
64614;BME280;51025;37.772;-122.432;2022-10-28T12:13:21;101461.91;;;16.56;30.77
64614;BME280;51025;37.772;-122.432;2022-10-28T12:15:57;101468.47;;;16.91;30.85
64614;BME280;51025;37.772;-122.432;2022-10-28T12:18:34;101477.35;;;16.88;30.83
64614;BME280;51025;37.772;-122.432;2022-10-28T12:21:10;101485.17;;;17.05;30.99
64614;BME280;51025;37.772;-122.432;2022-10-28T12:23:42;101488.37;;;17.07;30.94
64614;BME280;51025;37.772;-122.432;2022-10-28T12:26:14;101486.91;;;16.63;31.01
64614;BME280;51025;37.772;-122.432;2022-10-28T12:28:45;101486.86;;;16.76;30.87
64614;BME280;51025;37.772;-122.432;2022-10-28T12:31:21;101485.59;;;16.75;30.85
64614;BME280;51025;37.772;-122.432;2022-10-28T12:33:53;101490.90;;;16.88;30.73
64614;BME280;51025;37.772;-122.432;2022-10-28T12:36:31;101489.46;;;16.88;30.70
64614;BME280;51025;37.772;-122.432;2022-10-28T12:39:08;101488.11;;;16.75;30.82
64614;BME280;51025;37.772;-122.432;2022-10-28T12:41:48;101487.55;;;16.67;30.90
64614;BME280;51025;37.772;-122.432;2022-10-28T12:44:20;101491.75;;;16.68;30.87
64614;BME280;51025;37.772;-122.432;2022-10-28T12:46:59;101499.65;;;17.07;30.87
64614;BME280;51025;37.772;-122.432;2022-10-28T12:49:43;101505.01;;;16.92;30.98